createdAt,value
2023-08-14T00:01:05.204Z,21.70
2023-08-14T00:03:33.112Z,21.60
2023-08-14T00:06:00.275Z,21.60
2023-08-14T00:08:27.255Z,21.60
2023-08-14T00:10:56.127Z,21.60
2023-08-14T00:13:23.279Z,21.50
2023-08-14T00:15:50.749Z,21.50
2023-08-14T00:18:17.904Z,21.50
2023-08-14T00:20:45.804Z,21.50
2023-08-14T00:23:12.854Z,21.40
2023-08-14T00:25:39.937Z,21.40
2023-08-14T00:28:06.846Z,21.40
2023-08-14T00:30:33.806Z,21.40
2023-08-14T00:33:00.746Z,21.40
2023-08-14T00:35:27.762Z,21.40
2023-08-14T00:37:54.625Z,21.50
2023-08-14T00:40:21.442Z,21.50
2023-08-14T00:42:48.597Z,21.50
2023-08-14T00:45:17.275Z,21.50
2023-08-14T00:47:47.337Z,21.50
2023-08-14T00:50:15.154Z,21.60
2023-08-14T00:52:45.836Z,21.60
2023-08-14T00:55:19.924Z,21.60
2023-08-14T00:57:46.912Z,21.60
2023-08-14T01:00:14.756Z,21.60
2023-08-14T01:02:43.748Z,21.60
2023-08-14T01:05:11.056Z,21.60
2023-08-14T01:07:38.580Z,21.50
2023-08-14T01:10:08.186Z,21.50
2023-08-14T01:12:51.766Z,21.50
2023-08-14T01:15:28.147Z,21.50
2023-08-14T01:18:01.151Z,21.50
2023-08-14T01:20:32.866Z,21.40
2023-08-14T01:23:29.729Z,21.40
2023-08-14T01:25:57.039Z,21.30
2023-08-14T01:28:24.359Z,21.30
2023-08-14T01:30:51.501Z,21.20
2023-08-14T01:33:18.352Z,21.20
2023-08-14T01:35:57.002Z,21.20
2023-08-14T01:39:00.971Z,21.20
2023-08-14T01:41:52.794Z,21.20
2023-08-14T01:44:23.990Z,21.20
2023-08-14T01:46:54.152Z,21.20
2023-08-14T01:49:21.623Z,21.20
2023-08-14T01:51:50.733Z,21.10
2023-08-14T01:54:17.787Z,21.10
2023-08-14T01:56:44.669Z,21.10
2023-08-14T01:59:11.541Z,21.10
2023-08-14T02:01:38.379Z,21.10
2023-08-14T02:04:07.714Z,21.00
2023-08-14T02:06:34.807Z,21.10
2023-08-14T02:09:01.704Z,21.10
2023-08-14T02:11:28.576Z,21.10
2023-08-14T02:13:55.409Z,21.10
2023-08-14T02:16:22.283Z,21.00
2023-08-14T02:18:49.174Z,21.00
2023-08-14T02:21:17.266Z,21.00
2023-08-14T02:23:44.073Z,20.90
2023-08-14T02:26:10.893Z,20.90
2023-08-14T02:28:37.685Z,20.90
2023-08-14T02:31:05.986Z,20.90
2023-08-14T02:33:33.171Z,20.90
2023-08-14T02:36:00.057Z,20.90
2023-08-14T02:38:26.961Z,20.90
2023-08-14T02:40:53.971Z,20.80
2023-08-14T02:43:20.799Z,20.80
2023-08-14T02:45:47.708Z,20.90
2023-08-14T02:48:14.548Z,20.80
2023-08-14T02:50:41.386Z,20.80
2023-08-14T02:53:08.207Z,20.80
2023-08-14T02:55:35.033Z,20.80
2023-08-14T02:58:01.871Z,20.80
2023-08-14T03:00:28.779Z,20.70
2023-08-14T03:02:55.814Z,20.80
2023-08-14T03:05:22.796Z,20.80
2023-08-14T03:07:49.623Z,20.80
2023-08-14T03:10:16.560Z,20.80
2023-08-14T03:12:43.377Z,20.80
2023-08-14T03:15:10.721Z,20.70
2023-08-14T03:17:37.582Z,20.70
2023-08-14T03:20:05.890Z,20.70
2023-08-14T03:22:32.773Z,20.60
2023-08-14T03:24:59.597Z,20.60
2023-08-14T03:27:26.474Z,20.50
2023-08-14T03:29:53.361Z,20.50
2023-08-14T03:32:20.450Z,20.50
2023-08-14T03:34:47.471Z,20.50
2023-08-14T03:37:14.324Z,20.50
2023-08-14T03:39:41.235Z,20.50
2023-08-14T03:42:08.048Z,20.50
2023-08-14T03:44:34.951Z,20.50
2023-08-14T03:47:01.817Z,20.50
2023-08-14T03:49:28.636Z,20.50
2023-08-14T03:51:55.496Z,20.40
2023-08-14T03:54:22.385Z,20.40
2023-08-14T03:56:49.237Z,20.40
2023-08-14T03:59:16.145Z,20.30
2023-08-14T04:01:44.464Z,20.40
2023-08-14T04:04:11.498Z,20.30
2023-08-14T04:06:38.464Z,20.40
2023-08-14T04:09:06.420Z,20.30
2023-08-14T04:11:34.096Z,20.30
2023-08-14T04:14:01.071Z,20.30
2023-08-14T04:16:42.407Z,20.30
2023-08-14T04:19:13.649Z,20.30
2023-08-14T04:21:40.610Z,20.30
2023-08-14T04:24:08.691Z,20.30
2023-08-14T04:26:37.819Z,20.30
2023-08-14T04:29:09.057Z,20.30
2023-08-14T04:31:37.530Z,20.30
2023-08-14T04:34:05.527Z,20.30
2023-08-14T04:36:34.152Z,20.30
2023-08-14T04:39:02.039Z,20.30
2023-08-14T04:41:29.075Z,20.30
2023-08-14T04:43:56.545Z,20.30
2023-08-14T04:46:49.506Z,20.30
2023-08-14T04:49:25.727Z,20.30
2023-08-14T04:51:52.686Z,20.30
2023-08-14T04:54:19.613Z,20.30
2023-08-14T04:56:46.526Z,20.40
2023-08-14T04:59:13.352Z,20.40
2023-08-14T05:01:40.221Z,20.40
2023-08-14T05:04:07.503Z,20.40
2023-08-14T05:06:34.415Z,20.40
2023-08-14T05:09:04.416Z,20.40
2023-08-14T05:11:40.621Z,20.40
2023-08-14T05:14:07.456Z,20.40
2023-08-14T05:16:34.460Z,20.40
2023-08-14T05:19:01.291Z,20.50
2023-08-14T05:21:28.108Z,20.50
2023-08-14T05:23:54.977Z,20.50
2023-08-14T05:26:21.826Z,20.50
2023-08-14T05:28:48.662Z,20.60
2023-08-14T05:31:15.637Z,20.60
2023-08-14T05:33:42.500Z,20.60
2023-08-14T05:36:09.327Z,20.70
2023-08-14T05:38:36.179Z,20.70
2023-08-14T05:41:03.041Z,20.70
2023-08-14T05:43:29.976Z,20.70
2023-08-14T05:45:56.831Z,20.70
2023-08-14T05:48:23.798Z,20.80
2023-08-14T05:50:55.699Z,20.80
2023-08-14T05:53:23.234Z,20.80
2023-08-14T05:55:50.204Z,20.80
2023-08-14T05:58:17.119Z,20.90
2023-08-14T06:00:44.112Z,20.90
2023-08-14T06:03:11.173Z,20.90
2023-08-14T06:05:38.249Z,21.00
2023-08-14T06:08:06.065Z,21.10
2023-08-14T06:10:32.984Z,21.10
2023-08-14T06:12:59.872Z,21.10
2023-08-14T06:15:26.746Z,21.20
2023-08-14T06:17:54.016Z,21.20
2023-08-14T06:20:21.423Z,21.30
2023-08-14T06:22:48.486Z,21.30
2023-08-14T06:25:17.088Z,21.40
2023-08-14T06:27:44.156Z,21.50
2023-08-14T06:30:12.535Z,21.50
2023-08-14T06:32:40.126Z,21.60
2023-08-14T06:35:08.434Z,21.70
2023-08-14T06:37:36.121Z,21.70
2023-08-14T06:40:04.999Z,21.80
2023-08-14T06:42:31.962Z,21.90
2023-08-14T06:44:59.044Z,21.90
2023-08-14T06:47:26.163Z,22.00
2023-08-14T06:49:53.079Z,22.10
2023-08-14T06:52:20.473Z,22.20
2023-08-14T06:54:47.507Z,22.30
2023-08-14T06:57:14.388Z,22.40
2023-08-14T06:59:41.325Z,22.50
2023-08-14T07:02:08.245Z,22.60
2023-08-14T07:04:35.188Z,22.70
2023-08-14T07:07:02.077Z,22.80
2023-08-14T07:09:29.370Z,22.90
2023-08-14T07:11:56.216Z,23.00
2023-08-14T07:14:23.130Z,23.10
2023-08-14T07:16:50.045Z,23.30
2023-08-14T07:19:18.753Z,23.40
2023-08-14T07:21:46.347Z,23.60
2023-08-14T07:24:13.743Z,23.70
2023-08-14T07:26:42.126Z,23.90
2023-08-14T07:29:09.604Z,24.00
2023-08-14T07:31:36.582Z,24.10
2023-08-14T07:34:03.465Z,24.30
2023-08-14T07:36:30.312Z,24.40
2023-08-14T07:38:57.372Z,24.60
2023-08-14T07:41:24.359Z,24.70
2023-08-14T07:43:51.275Z,24.90
2023-08-14T07:46:19.408Z,25.00
2023-08-14T07:48:46.488Z,25.20
2023-08-14T07:51:13.418Z,25.30
2023-08-14T07:53:40.254Z,25.40
2023-08-14T07:56:07.143Z,25.50
2023-08-14T07:58:34.067Z,25.60
2023-08-14T08:01:01.077Z,25.60
2023-08-14T08:03:27.965Z,25.80
2023-08-14T08:05:54.833Z,25.90
2023-08-14T08:08:21.765Z,26.10
2023-08-14T08:10:48.645Z,26.10
2023-08-14T08:13:15.604Z,26.20
2023-08-14T08:15:42.866Z,26.20
2023-08-14T08:18:09.993Z,26.20
2023-08-14T08:20:37.323Z,26.30
2023-08-14T08:23:05.151Z,26.40
2023-08-14T08:25:32.148Z,26.60
2023-08-14T08:27:59.342Z,26.70
2023-08-14T08:30:26.341Z,26.80
2023-08-14T08:32:53.283Z,26.90
2023-08-14T08:35:20.333Z,27.00
2023-08-14T08:37:47.257Z,27.10
2023-08-14T08:40:14.195Z,27.20
2023-08-14T08:42:41.515Z,27.30
2023-08-14T08:45:10.553Z,27.40
2023-08-14T08:47:40.628Z,27.50
2023-08-14T08:50:09.104Z,27.60
2023-08-14T08:52:36.259Z,27.70
2023-08-14T08:55:04.041Z,27.80
2023-08-14T08:57:31.597Z,27.90
2023-08-14T09:00:02.329Z,28.00
2023-08-14T09:02:29.745Z,28.10
2023-08-14T09:04:57.045Z,28.20
2023-08-14T09:07:24.099Z,28.20
2023-08-14T09:09:51.091Z,28.30
2023-08-14T09:12:18.262Z,28.40
2023-08-14T09:15:05.314Z,28.50
2023-08-14T09:17:32.682Z,28.60
2023-08-14T09:20:03.410Z,28.70
2023-08-14T09:22:32.951Z,28.80
2023-08-14T09:25:01.646Z,28.80
2023-08-14T09:27:28.572Z,28.80
2023-08-14T09:29:56.269Z,28.90
2023-08-14T09:32:25.378Z,29.00
2023-08-14T09:35:02.755Z,29.10
2023-08-14T09:37:30.291Z,29.20
2023-08-14T09:40:16.786Z,29.30
2023-08-14T09:42:46.873Z,29.40
2023-08-14T09:45:24.672Z,29.50
2023-08-14T09:47:52.905Z,29.60
2023-08-14T09:50:22.353Z,29.70
2023-08-14T09:52:50.202Z,29.80
2023-08-14T09:55:17.642Z,29.80
2023-08-14T09:57:45.727Z,29.80
2023-08-14T10:00:13.992Z,29.90
2023-08-14T10:02:45.590Z,29.90
2023-08-14T10:05:13.540Z,30.00
2023-08-14T10:07:41.356Z,30.20
2023-08-14T10:10:09.577Z,30.30
2023-08-14T10:12:53.303Z,30.40
2023-08-14T10:15:27.505Z,30.50
2023-08-14T10:18:00.738Z,30.60
2023-08-14T10:20:34.875Z,30.70
2023-08-14T10:23:03.561Z,30.80
2023-08-14T10:25:31.033Z,31.00
2023-08-14T10:27:58.608Z,31.20
2023-08-14T10:30:26.617Z,31.20
2023-08-14T10:32:54.011Z,31.30
2023-08-14T10:35:22.869Z,31.30
2023-08-14T10:38:04.392Z,31.30
2023-08-14T10:40:37.192Z,31.40
2023-08-14T10:43:06.821Z,31.50
2023-08-14T10:45:34.607Z,31.50
2023-08-14T10:48:10.036Z,31.50
2023-08-14T10:50:37.306Z,31.50
2023-08-14T10:53:06.346Z,31.60
2023-08-14T10:55:38.068Z,31.60
2023-08-14T10:58:36.894Z,31.50
2023-08-14T11:01:11.843Z,31.50
2023-08-14T11:03:59.932Z,31.50
2023-08-14T11:06:51.456Z,31.50
2023-08-14T11:09:18.303Z,31.50
2023-08-14T11:11:48.570Z,31.50
2023-08-14T11:14:15.937Z,31.50
2023-08-14T11:16:48.660Z,31.60
2023-08-14T11:19:18.710Z,31.60
2023-08-14T11:21:50.092Z,31.70
2023-08-14T11:24:16.959Z,31.80
2023-08-14T11:26:43.937Z,31.80
2023-08-14T11:29:10.785Z,31.90
2023-08-14T11:31:42.020Z,32.10
2023-08-14T11:34:16.107Z,32.10
2023-08-14T11:37:06.681Z,32.10
2023-08-14T11:39:35.464Z,32.20
2023-08-14T11:42:04.461Z,32.30
2023-08-14T11:44:31.690Z,32.40
2023-08-14T11:46:59.347Z,32.50
2023-08-14T11:49:26.410Z,32.50
2023-08-14T11:51:54.857Z,32.50
2023-08-14T11:54:22.296Z,32.50
2023-08-14T11:56:49.537Z,32.50
2023-08-14T11:59:19.167Z,32.60
2023-08-14T12:01:46.163Z,32.70
2023-08-14T12:04:13.256Z,32.70
2023-08-14T12:06:40.213Z,32.80
2023-08-14T12:09:11.656Z,32.90
2023-08-14T12:11:40.211Z,32.90
2023-08-14T12:14:08.856Z,33.00
2023-08-14T12:16:40.872Z,33.10
2023-08-14T12:19:12.637Z,33.10
2023-08-14T12:21:40.122Z,33.00
2023-08-14T12:24:07.477Z,33.00
2023-08-14T12:26:46.085Z,33.10
2023-08-14T12:29:16.345Z,33.00
2023-08-14T12:31:43.463Z,32.90
2023-08-14T12:34:10.447Z,33.00
2023-08-14T12:36:37.394Z,33.10
2023-08-14T12:39:04.621Z,33.20
2023-08-14T12:41:31.889Z,33.30
2023-08-14T12:43:59.006Z,33.40
2023-08-14T12:46:26.831Z,33.40
2023-08-14T12:48:53.812Z,33.50
2023-08-14T12:51:20.767Z,33.60
2023-08-14T12:53:47.679Z,33.70
2023-08-14T12:58:48.450Z,33.70
2023-08-14T13:01:16.356Z,33.70
2023-08-14T13:03:43.390Z,33.80
2023-08-14T13:06:10.364Z,33.80
2023-08-14T13:08:37.302Z,33.70
2023-08-14T13:11:05.055Z,33.50
2023-08-14T13:13:32.000Z,33.40
2023-08-14T13:15:59.639Z,33.40
2023-08-14T13:18:26.525Z,33.30
2023-08-14T13:20:53.413Z,33.30
2023-08-14T13:23:20.320Z,33.30
2023-08-14T13:25:47.450Z,33.20
2023-08-14T13:28:14.282Z,33.20
2023-08-14T13:30:44.099Z,33.20
2023-08-14T13:33:13.049Z,33.00
2023-08-14T13:35:40.018Z,33.00
2023-08-14T13:38:07.271Z,33.00
2023-08-14T13:40:34.254Z,33.00
2023-08-14T13:43:01.308Z,33.00
2023-08-14T13:45:30.520Z,33.10
2023-08-14T13:47:58.708Z,33.20
2023-08-14T13:50:33.103Z,33.30
2023-08-14T13:53:02.939Z,33.40
2023-08-14T13:55:33.897Z,33.40
2023-08-14T13:58:02.687Z,33.50
2023-08-14T14:00:31.137Z,33.50
2023-08-14T14:03:00.138Z,33.40
2023-08-14T14:05:28.412Z,33.30
2023-08-14T14:07:57.147Z,33.40
2023-08-14T14:10:26.528Z,33.30
2023-08-14T14:15:23.702Z,33.20
2023-08-14T14:17:50.822Z,33.10
2023-08-14T14:20:18.148Z,33.00
2023-08-14T14:22:45.354Z,33.00
2023-08-14T14:25:13.947Z,33.00
2023-08-14T14:27:40.852Z,33.00
2023-08-14T14:30:08.753Z,33.00
2023-08-14T14:32:36.257Z,32.90
2023-08-14T14:35:03.959Z,32.80
2023-08-14T14:37:31.577Z,32.80
2023-08-14T14:39:58.782Z,32.80
2023-08-14T14:42:26.091Z,32.70
2023-08-14T14:44:54.713Z,32.60
2023-08-14T14:47:24.337Z,32.60
2023-08-14T14:49:51.810Z,32.60
2023-08-14T14:52:18.835Z,32.50
2023-08-14T14:54:45.817Z,32.40
2023-08-14T14:57:12.784Z,32.40
2023-08-14T14:59:41.333Z,32.40
2023-08-14T15:02:19.109Z,32.50
2023-08-14T15:04:55.064Z,32.50
2023-08-14T15:07:22.186Z,32.60
2023-08-14T15:09:49.166Z,32.50
2023-08-14T15:12:16.130Z,32.50
2023-08-14T15:14:42.948Z,32.50
2023-08-14T15:17:09.857Z,32.50
2023-08-14T15:19:36.722Z,32.50
2023-08-14T15:22:03.569Z,32.50
2023-08-14T15:24:30.404Z,32.50
2023-08-14T15:26:57.213Z,32.50
2023-08-14T15:29:24.060Z,32.50
2023-08-14T15:31:50.866Z,32.40
2023-08-14T15:34:17.772Z,32.40
2023-08-14T15:36:44.604Z,32.40
2023-08-14T15:39:11.489Z,32.30
2023-08-14T15:41:38.422Z,32.20
2023-08-14T15:44:07.751Z,32.10
2023-08-14T15:46:35.920Z,32.00
2023-08-14T15:49:02.959Z,31.90
2023-08-14T15:51:30.108Z,31.80
2023-08-14T15:53:56.969Z,31.70
2023-08-14T15:56:23.966Z,31.70
2023-08-14T15:58:50.846Z,31.60
2023-08-14T16:01:18.096Z,31.60
2023-08-14T16:03:45.035Z,31.60
2023-08-14T16:06:11.953Z,31.50
2023-08-14T16:08:38.972Z,31.40
2023-08-14T16:11:05.815Z,31.40
2023-08-14T16:13:33.767Z,31.30
2023-08-14T16:16:00.752Z,31.30
2023-08-14T16:18:27.629Z,31.20
2023-08-14T16:20:54.493Z,31.20
2023-08-14T16:23:21.469Z,31.10
2023-08-14T16:25:48.399Z,31.00
2023-08-14T16:28:15.337Z,31.00
2023-08-14T16:30:42.342Z,30.90
2023-08-14T16:33:09.262Z,30.90
2023-08-14T16:35:36.135Z,30.90
2023-08-14T16:38:03.203Z,30.80
2023-08-14T16:40:30.095Z,30.70
2023-08-14T16:42:57.890Z,30.60
2023-08-14T16:45:25.283Z,30.50
2023-08-14T16:47:52.311Z,30.40
2023-08-14T16:50:19.399Z,30.30
2023-08-14T16:52:46.612Z,30.30
2023-08-14T16:55:16.288Z,30.30
2023-08-14T16:57:43.563Z,30.20
2023-08-14T17:00:12.972Z,30.10
2023-08-14T17:02:40.389Z,30.00
2023-08-14T17:05:08.376Z,29.90
2023-08-14T17:07:35.344Z,29.80
2023-08-14T17:10:02.160Z,29.70
2023-08-14T17:12:28.991Z,29.70
2023-08-14T17:14:57.646Z,29.60
2023-08-14T17:17:24.720Z,29.50
2023-08-14T17:19:51.716Z,29.40
2023-08-14T17:22:18.715Z,29.40
2023-08-14T17:24:45.538Z,29.30
2023-08-14T17:27:12.412Z,29.30
2023-08-14T17:29:39.295Z,29.20
2023-08-14T17:32:06.337Z,29.10
2023-08-14T17:34:33.343Z,29.00
2023-08-14T17:37:00.215Z,29.00
2023-08-14T17:39:27.017Z,28.90
2023-08-14T17:41:57.667Z,28.80
2023-08-14T17:44:25.037Z,28.80
2023-08-14T17:46:52.160Z,28.70
2023-08-14T17:49:19.358Z,28.70
2023-08-14T17:51:46.163Z,28.60
2023-08-14T17:54:12.986Z,28.50
2023-08-14T17:56:39.850Z,28.40
2023-08-14T17:59:07.878Z,28.40
2023-08-14T18:01:34.954Z,28.40
2023-08-14T18:04:01.899Z,28.30
2023-08-14T18:06:28.824Z,28.20
2023-08-14T18:08:55.669Z,28.20
2023-08-14T18:11:22.561Z,28.10
2023-08-14T18:13:49.522Z,28.10
2023-08-14T18:16:16.483Z,28.00
2023-08-14T18:18:43.316Z,28.00
2023-08-14T18:21:11.197Z,27.90
2023-08-14T18:23:39.028Z,27.90
2023-08-14T18:26:06.418Z,27.80
2023-08-14T18:28:33.290Z,27.70
2023-08-14T18:31:00.174Z,27.70
2023-08-14T18:33:27.077Z,27.60
2023-08-14T18:35:53.878Z,27.50
2023-08-14T18:38:20.682Z,27.40
2023-08-14T18:40:47.476Z,27.40
2023-08-14T18:43:14.724Z,27.30
2023-08-14T18:45:41.728Z,27.30
2023-08-14T18:48:09.521Z,27.20
2023-08-14T18:50:36.474Z,27.20
2023-08-14T18:53:04.902Z,27.10
2023-08-14T18:55:31.937Z,27.10
2023-08-14T18:57:58.837Z,27.00
2023-08-14T19:00:25.785Z,27.00
2023-08-14T19:02:53.574Z,26.90
2023-08-14T19:05:22.444Z,26.90
2023-08-14T19:07:49.312Z,26.80
2023-08-14T19:10:16.264Z,26.70
2023-08-14T19:12:43.146Z,26.70
2023-08-14T19:15:10.217Z,26.60
2023-08-14T19:17:37.101Z,26.60
2023-08-14T19:20:04.659Z,26.60
2023-08-14T19:22:31.646Z,26.50
2023-08-14T19:24:58.589Z,26.40
2023-08-14T19:27:25.396Z,26.40
2023-08-14T19:29:52.220Z,26.30
2023-08-14T19:32:19.106Z,26.30
2023-08-14T19:34:45.901Z,26.30
2023-08-14T19:37:15.580Z,26.20
2023-08-14T19:39:42.378Z,26.20
2023-08-14T19:42:09.287Z,26.10
2023-08-14T19:44:36.170Z,26.10
2023-08-14T19:47:03.083Z,26.00
2023-08-14T19:49:29.919Z,26.00
2023-08-14T19:51:56.796Z,25.90
2023-08-14T19:54:23.759Z,25.90
2023-08-14T19:56:50.841Z,25.80
2023-08-14T19:59:17.681Z,25.80
2023-08-14T20:01:44.551Z,25.70
2023-08-14T20:04:11.516Z,25.70
2023-08-14T20:06:38.967Z,25.60
2023-08-14T20:09:06.790Z,25.60
2023-08-14T20:11:33.863Z,25.60
2023-08-14T20:14:00.661Z,25.60
2023-08-14T20:16:27.538Z,25.50
2023-08-14T20:18:54.416Z,25.50
2023-08-14T20:21:21.250Z,25.50
2023-08-14T20:23:48.058Z,25.50
2023-08-14T20:26:14.936Z,25.40
2023-08-14T20:28:44.061Z,25.40
2023-08-14T20:31:23.244Z,25.30
2023-08-14T20:33:50.705Z,25.30
2023-08-14T20:36:27.931Z,25.20
2023-08-14T20:38:55.127Z,25.20
2023-08-14T20:41:21.966Z,25.20
2023-08-14T20:43:49.546Z,25.10
2023-08-14T20:46:16.475Z,25.10
2023-08-14T20:48:43.470Z,25.10
2023-08-14T20:51:10.681Z,25.00
2023-08-14T20:53:38.181Z,25.00
2023-08-14T20:56:05.244Z,24.90
2023-08-14T20:58:32.125Z,24.90
2023-08-14T21:00:58.945Z,24.80
2023-08-14T21:03:25.939Z,24.80
2023-08-14T21:05:55.011Z,24.80
2023-08-14T21:08:22.502Z,24.70
2023-08-14T21:10:49.383Z,24.70
2023-08-14T21:13:16.297Z,24.60
2023-08-14T21:15:43.287Z,24.60
2023-08-14T21:18:10.185Z,24.50
2023-08-14T21:20:37.134Z,24.50
2023-08-14T21:23:04.261Z,24.50
2023-08-14T21:25:44.088Z,24.40
2023-08-14T21:28:13.844Z,24.30
2023-08-14T21:30:40.710Z,24.30
2023-08-14T21:33:07.852Z,24.20
2023-08-14T21:35:34.715Z,24.20
2023-08-14T21:38:01.532Z,24.20
2023-08-14T21:40:28.348Z,24.20
2023-08-14T21:42:57.076Z,24.10
2023-08-14T21:45:24.108Z,24.10
2023-08-14T21:47:50.952Z,24.00
2023-08-14T21:50:17.845Z,24.00
2023-08-14T21:52:44.629Z,24.00
2023-08-14T21:55:11.423Z,24.00
2023-08-14T21:57:38.295Z,23.90
2023-08-14T22:00:08.682Z,23.90
2023-08-14T22:02:35.645Z,23.80
2023-08-14T22:05:02.810Z,23.70
2023-08-14T22:07:29.704Z,23.70
2023-08-14T22:09:56.539Z,23.70
2023-08-14T22:12:23.404Z,23.70
2023-08-14T22:14:50.275Z,23.70
2023-08-14T22:17:17.275Z,23.70
2023-08-14T22:19:44.378Z,23.60
2023-08-14T22:22:11.312Z,23.60
2023-08-14T22:24:40.568Z,23.50
2023-08-14T22:27:08.894Z,23.50
2023-08-14T22:29:35.780Z,23.50
2023-08-14T22:32:02.717Z,23.40
2023-08-14T22:34:29.683Z,23.30
2023-08-14T22:36:56.516Z,23.30
2023-08-14T22:39:23.381Z,23.20
2023-08-14T22:41:50.247Z,23.20
2023-08-14T22:44:17.025Z,23.20
2023-08-14T22:46:43.896Z,23.10
2023-08-14T22:49:11.970Z,23.00
2023-08-14T22:51:38.781Z,23.00
2023-08-14T22:54:05.947Z,23.00
2023-08-14T22:56:32.897Z,23.00
2023-08-14T22:58:59.689Z,22.90
2023-08-14T23:01:26.572Z,22.90
2023-08-14T23:03:53.411Z,22.90
2023-08-14T23:06:20.241Z,22.90
2023-08-14T23:08:47.036Z,22.90
2023-08-14T23:11:13.904Z,22.90
2023-08-14T23:13:40.826Z,22.90
2023-08-14T23:16:07.633Z,22.80
2023-08-14T23:18:34.588Z,22.80
2023-08-14T23:21:01.740Z,22.70
2023-08-14T23:23:28.572Z,22.70
2023-08-14T23:25:55.370Z,22.70
2023-08-14T23:28:22.215Z,22.70
2023-08-14T23:30:50.130Z,22.60
2023-08-14T23:33:17.075Z,22.60
2023-08-14T23:35:45.458Z,22.60
2023-08-14T23:38:12.276Z,22.60
2023-08-14T23:40:39.124Z,22.60
2023-08-14T23:43:05.942Z,22.50
2023-08-14T23:45:32.794Z,22.50
2023-08-14T23:47:59.855Z,22.40
2023-08-14T23:50:26.795Z,22.40
2023-08-14T23:52:53.614Z,22.40
2023-08-14T23:55:20.440Z,22.30
2023-08-14T23:57:47.321Z,22.30
